Ellen Mcallister — WDG3673 — position and weather

sailwx.info

Track history (hours):
 
Tides and Currents Weather Stations Pressure Air Temp Water Temp Dewpoint Dewpoint Depression Visibility Wind Speed Wind Dir Waves Ship Positions

Ellen Mcallister

Owner: McAllister Towing & Transportation Inc., Staten Island, NY. More information available from US FCC via Universal Licensing System and Coast Guard Vessel Documentation Center.

Last reported at 2016-Dec-03 08:34 UTC. Time now 2016-Dec-03 09:34 UTC.
Position N 40°40' W 074°05'.

Length 35 m; draft 5 m.

Type: Tug. MMSI: 366836590.

Date/timePositionNaut miles runAvg speedWind from/ knotsBaromVisibWave heightAir tempDewpointWater temp
2016-Dec-03 08:34N 40°40' W 074°05'3 2.4
2016-Dec-03 07:23N 40°40' W 074°09'2 1.8
2016-Dec-03 06:15N 40°42' W 074°08'2 0.3
2016-Dec-02 23:24N 40°40' W 074°09'2 1.6
2016-Dec-02 22:24N 40°41' W 074°08'4 4.7
2016-Dec-02 21:33N 40°39' W 074°04'1 1.1
2016-Dec-02 20:33N 40°40' W 074°04'0 0.0
2016-Dec-02 19:31N 40°40' W 074°04'0 0.0
2016-Dec-02 18:33N 40°40' W 074°04'0 0.0
2016-Dec-02 17:33N 40°40' W 074°04'0 0.0
2016-Dec-02 16:33N 40°40' W 074°04'0 0.0
2016-Dec-02 15:33N 40°40' W 074°04'0 0.0
2016-Dec-02 14:33N 40°40' W 074°04'0 0.0
2016-Dec-02 13:32N 40°40' W 074°04'0 0.0
2016-Dec-02 12:32N 40°40' W 074°04'2 1.8
2016-Dec-02 11:32N 40°38' W 074°03'2 1.9
2016-Dec-02 10:33N 40°40' W 074°04'0 0.0
2016-Dec-02 09:33N 40°40' W 074°04'0 0.0
2016-Dec-02 08:33N 40°40' W 074°04'0 0.0
2016-Dec-02 07:33N 40°40' W 074°04'0 0.0
2016-Dec-02 06:33N 40°40' W 074°04'0 0.0
2016-Dec-02 05:33N 40°40' W 074°04'3 3.5
2016-Dec-02 04:33N 40°42' W 074°00'1 1.5
2016-Dec-02 03:33N 40°41' W 074°02'2 2.1
2016-Dec-02 02:33N 40°40' W 074°04'1 1.2
2016-Dec-02 01:32N 40°39' W 074°05'0 0.4
2016-Dec-02 00:32N 40°39' W 074°06'0 0.0
2016-Dec-01 23:33N 40°39' W 074°06'2 0.4
2016-Dec-01 17:33N 40°40' W 074°08'3 0.4
2016-Dec-01 10:33N 40°40' W 074°05'2 1.5
2016-Dec-01 09:33N 40°39' W 074°03'1 1.1
2016-Dec-01 08:33N 40°39' W 074°05'0 0.0
2016-Dec-01 01:21N 40°39' W 074°04'3 2.8
2016-Dec-01 00:13N 40°40' W 074°08'3 1.1
2016-Nov-30 21:19N 40°39' W 074°04'5 6.6
2016-Nov-30 20:31N 40°42' W 073°58'1 1.3
2016-Nov-30 19:33N 40°42' W 074°00'4 3.9
2016-Nov-30 18:33N 40°40' W 074°04'0 0.0
2016-Nov-30 17:33N 40°40' W 074°04'5 4.9
2016-Nov-30 16:33N 40°42' W 073°58'0 0.4
2016-Nov-30 15:32N 40°42' W 073°58'0 0.0
2016-Nov-30 14:33N 40°42' W 073°58'6 1.2
2016-Nov-30 09:31N 40°38' W 074°03'3 0.5
2016-Nov-30 02:32N 40°40' W 074°05'2 2.2
2016-Nov-30 01:32N 40°39' W 074°03'2 1.6
2016-Nov-30 00:33N 40°40' W 074°04'0 0.0
2016-Nov-29 23:33N 40°40' W 074°04'1 0.6
2016-Nov-29 22:34N 40°40' W 074°05'1 0.5
2016-Nov-29 21:33N 40°40' W 074°04'0 0.0
2016-Nov-29 20:33N 40°40' W 074°04'0 0.0
2016-Nov-29 19:33N 40°40' W 074°04'0 0.0
2016-Nov-29 18:32N 40°40' W 074°04'0 0.0
2016-Nov-29 17:34N 40°40' W 074°04'0 0.0
2016-Nov-29 16:33N 40°40' W 074°04'0 0.0
2016-Nov-29 15:33N 40°40' W 074°04'0 0.0
2016-Nov-29 14:33N 40°40' W 074°04'0 0.0
2016-Nov-29 13:33N 40°40' W 074°04'0 0.0
2016-Nov-29 12:33N 40°40' W 074°04'0 0.4
2016-Nov-29 11:33N 40°40' W 074°05'3 2.7
2016-Nov-29 10:22N 40°37' W 074°03'2 0.4
2016-Nov-29 04:23N 40°39' W 074°04'1 1.1
2016-Nov-29 03:33N 40°40' W 074°05'6 2.0
2016-Nov-29 00:29N 40°38' W 074°12'5 4.7
2016-Nov-28 23:21N 40°39' W 074°05'1 0.7
2016-Nov-28 22:33N 40°39' W 074°04'1 0.5
2016-Nov-28 20:11N 40°40' W 074°04'1 1.1
2016-Nov-28 19:33N 40°40' W 074°04'5 4.8
2016-Nov-28 18:33N 40°42' W 073°58'0 0.0
2016-Nov-28 17:33N 40°42' W 073°58'0 0.0
2016-Nov-28 16:33N 40°42' W 073°58'0 0.0
2016-Nov-28 15:33N 40°42' W 073°58'0 0.0
2016-Nov-28 14:33N 40°42' W 073°58'0 0.3
2016-Nov-28 13:33N 40°42' W 073°59'4 4.0
2016-Nov-28 12:33N 40°40' W 074°03'5 4.6
2016-Nov-28 11:31N 40°41' W 074°09'4 1.8
2016-Nov-28 09:33N 40°39' W 074°05'1 0.9
2016-Nov-28 08:33N 40°40' W 074°04'0 0.0
2016-Nov-28 07:34N 40°40' W 074°04'0 0.0
2016-Nov-28 06:33N 40°40' W 074°04'0 0.0
2016-Nov-28 05:33N 40°40' W 074°04'0 0.0
2016-Nov-28 04:33N 40°40' W 074°04'0 0.0
2016-Nov-28 03:33N 40°40' W 074°04'0 0.0
2016-Nov-28 02:33N 40°40' W 074°04'0 0.0
2016-Nov-28 01:33N 40°40' W 074°04'0 0.0
2016-Nov-28 00:33N 40°40' W 074°04'0 0.0
2016-Nov-27 23:34N 40°40' W 074°04'0 0.0
2016-Nov-27 22:32N 40°40' W 074°04'0 0.0
2016-Nov-27 21:33N 40°40' W 074°04'0 0.0
2016-Nov-27 20:32N 40°40' W 074°04'0 0.0
2016-Nov-27 19:33N 40°40' W 074°04'0 0.1
2016-Nov-27 18:32N 40°40' W 074°04'0 0.0
2016-Nov-27 17:33N 40°40' W 074°04'0 0.0
2016-Nov-27 16:32N 40°40' W 074°04'0 0.0
2016-Nov-27 15:33N 40°40' W 074°04'6 5.7
2016-Nov-27 14:33N 40°45' W 074°01'1 1.1
2016-Nov-27 13:33N 40°46' W 074°00'6 5.7
2016-Nov-27 12:33N 40°41' W 074°03'4 1.1
2016-Nov-27 08:31N 40°40' W 074°08'3 1.1
2016-Nov-27 05:33N 40°40' W 074°04'0 0.3
2016-Nov-27 04:33N 40°40' W 074°04'4 0.6
2016-Nov-26 22:31N 40°42' W 074°08'5 0.9
2016-Nov-26 17:33N 40°39' W 074°04'1 0.2
2016-Nov-26 12:17N 40°39' W 074°05'1 1.6
2016-Nov-26 11:33N 40°40' W 074°04'4 0.9
2016-Nov-26 07:27N 40°39' W 074°09'2 0.1
2016-Nov-25 12:33N 40°41' W 074°09'0 0.3
2016-Nov-25 11:34N 40°41' W 074°08'3 2.4
2016-Nov-25 10:24N 40°39' W 074°05'3 3.6
2016-Nov-25 09:31N 40°36' W 074°03'6 0.3
2016-Nov-24 13:19N 40°40' W 074°08'4 0.6
2016-Nov-24 07:33N 40°39' W 074°04'2 1.1
2016-Nov-24 05:32N 40°41' W 074°02'1 1.0
2016-Nov-24 04:33N 40°41' W 074°01'4 0.6
2016-Nov-23 22:29N 40°39' W 074°05'2 1.6
2016-Nov-23 21:18N 40°38' W 074°03'2 2.8
2016-Nov-23 20:32N 40°40' W 074°04'0 0.4
2016-Nov-23 19:33N 40°40' W 074°04'0 0.0
2016-Nov-23 18:30N 40°40' W 074°04'0 0.2
2016-Nov-23 17:24N 40°40' W 074°04'3 1.2
2016-Nov-23 14:23N 40°40' W 074°09'3 2.6
2016-Nov-23 13:25N 40°39' W 074°06'2 2.2
2016-Nov-23 12:21N 40°38' W 074°03'  
Track history (hours):
 
Tides and Currents Weather Stations Pressure Air Temp Water Temp Dewpoint Dewpoint Depression Visibility Wind Speed Wind Dir Waves Ship Positions

Ellen Mcallister

Owner: McAllister Towing & Transportation Inc., Staten Island, NY. More information available from US FCC via Universal Licensing System and Coast Guard Vessel Documentation Center.

Last reported at 2016-Dec-03 08:34 UTC. Time now 2016-Dec-03 09:34 UTC.
Position N 40°40' W 074°05'.

Length 35 m; draft 5 m.

Type: Tug. MMSI: 366836590.

Date/timePositionNaut miles runAvg speedWind from/ knotsBaromVisibWave heightAir tempDewpointWater temp
2016-Dec-03 08:34N 40°40' W 074°05'3 2.4
2016-Dec-03 07:23N 40°40' W 074°09'2 1.8
2016-Dec-03 06:15N 40°42' W 074°08'2 0.3
2016-Dec-02 23:24N 40°40' W 074°09'2 1.6
2016-Dec-02 22:24N 40°41' W 074°08'4 4.7
2016-Dec-02 21:33N 40°39' W 074°04'1 1.1
2016-Dec-02 20:33N 40°40' W 074°04'0 0.0
2016-Dec-02 19:31N 40°40' W 074°04'0 0.0
2016-Dec-02 18:33N 40°40' W 074°04'0 0.0
2016-Dec-02 17:33N 40°40' W 074°04'0 0.0
2016-Dec-02 16:33N 40°40' W 074°04'0 0.0
2016-Dec-02 15:33N 40°40' W 074°04'0 0.0
2016-Dec-02 14:33N 40°40' W 074°04'0 0.0
2016-Dec-02 13:32N 40°40' W 074°04'0 0.0
2016-Dec-02 12:32N 40°40' W 074°04'2 1.8
2016-Dec-02 11:32N 40°38' W 074°03'2 1.9
2016-Dec-02 10:33N 40°40' W 074°04'0 0.0
2016-Dec-02 09:33N 40°40' W 074°04'0 0.0
2016-Dec-02 08:33N 40°40' W 074°04'0 0.0
2016-Dec-02 07:33N 40°40' W 074°04'0 0.0
2016-Dec-02 06:33N 40°40' W 074°04'0 0.0
2016-Dec-02 05:33N 40°40' W 074°04'3 3.5
2016-Dec-02 04:33N 40°42' W 074°00'1 1.5
2016-Dec-02 03:33N 40°41' W 074°02'2 2.1
2016-Dec-02 02:33N 40°40' W 074°04'1 1.2
2016-Dec-02 01:32N 40°39' W 074°05'0 0.4
2016-Dec-02 00:32N 40°39' W 074°06'0 0.0
2016-Dec-01 23:33N 40°39' W 074°06'2 0.4
2016-Dec-01 17:33N 40°40' W 074°08'3 0.4
2016-Dec-01 10:33N 40°40' W 074°05'2 1.5
2016-Dec-01 09:33N 40°39' W 074°03'1 1.1
2016-Dec-01 08:33N 40°39' W 074°05'0 0.0
2016-Dec-01 01:21N 40°39' W 074°04'3 2.8
2016-Dec-01 00:13N 40°40' W 074°08'3 1.1
2016-Nov-30 21:19N 40°39' W 074°04'5 6.6
2016-Nov-30 20:31N 40°42' W 073°58'1 1.3
2016-Nov-30 19:33N 40°42' W 074°00'4 3.9
2016-Nov-30 18:33N 40°40' W 074°04'0 0.0
2016-Nov-30 17:33N 40°40' W 074°04'5 4.9
2016-Nov-30 16:33N 40°42' W 073°58'0 0.4
2016-Nov-30 15:32N 40°42' W 073°58'0 0.0
2016-Nov-30 14:33N 40°42' W 073°58'6 1.2
2016-Nov-30 09:31N 40°38' W 074°03'3 0.5
2016-Nov-30 02:32N 40°40' W 074°05'2 2.2
2016-Nov-30 01:32N 40°39' W 074°03'2 1.6
2016-Nov-30 00:33N 40°40' W 074°04'0 0.0
2016-Nov-29 23:33N 40°40' W 074°04'1 0.6
2016-Nov-29 22:34N 40°40' W 074°05'1 0.5
2016-Nov-29 21:33N 40°40' W 074°04'0 0.0
2016-Nov-29 20:33N 40°40' W 074°04'0 0.0
2016-Nov-29 19:33N 40°40' W 074°04'0 0.0
2016-Nov-29 18:32N 40°40' W 074°04'0 0.0
2016-Nov-29 17:34N 40°40' W 074°04'0 0.0
2016-Nov-29 16:33N 40°40' W 074°04'0 0.0
2016-Nov-29 15:33N 40°40' W 074°04'0 0.0
2016-Nov-29 14:33N 40°40' W 074°04'0 0.0
2016-Nov-29 13:33N 40°40' W 074°04'0 0.0
2016-Nov-29 12:33N 40°40' W 074°04'0 0.4
2016-Nov-29 11:33N 40°40' W 074°05'3 2.7
2016-Nov-29 10:22N 40°37' W 074°03'2 0.4
2016-Nov-29 04:23N 40°39' W 074°04'1 1.1
2016-Nov-29 03:33N 40°40' W 074°05'6 2.0
2016-Nov-29 00:29N 40°38' W 074°12'5 4.7
2016-Nov-28 23:21N 40°39' W 074°05'1 0.7
2016-Nov-28 22:33N 40°39' W 074°04'1 0.5
2016-Nov-28 20:11N 40°40' W 074°04'1 1.1
2016-Nov-28 19:33N 40°40' W 074°04'5 4.8
2016-Nov-28 18:33N 40°42' W 073°58'0 0.0
2016-Nov-28 17:33N 40°42' W 073°58'0 0.0
2016-Nov-28 16:33N 40°42' W 073°58'0 0.0
2016-Nov-28 15:33N 40°42' W 073°58'0 0.0
2016-Nov-28 14:33N 40°42' W 073°58'0 0.3
2016-Nov-28 13:33N 40°42' W 073°59'4 4.0
2016-Nov-28 12:33N 40°40' W 074°03'5 4.6
2016-Nov-28 11:31N 40°41' W 074°09'4 1.8
2016-Nov-28 09:33N 40°39' W 074°05'1 0.9
2016-Nov-28 08:33N 40°40' W 074°04'0 0.0
2016-Nov-28 07:34N 40°40' W 074°04'0 0.0
2016-Nov-28 06:33N 40°40' W 074°04'0 0.0
2016-Nov-28 05:33N 40°40' W 074°04'0 0.0
2016-Nov-28 04:33N 40°40' W 074°04'0 0.0
2016-Nov-28 03:33N 40°40' W 074°04'0 0.0
2016-Nov-28 02:33N 40°40' W 074°04'0 0.0
2016-Nov-28 01:33N 40°40' W 074°04'0 0.0
2016-Nov-28 00:33N 40°40' W 074°04'0 0.0
2016-Nov-27 23:34N 40°40' W 074°04'0 0.0
2016-Nov-27 22:32N 40°40' W 074°04'0 0.0
2016-Nov-27 21:33N 40°40' W 074°04'0 0.0
2016-Nov-27 20:32N 40°40' W 074°04'0 0.0
2016-Nov-27 19:33N 40°40' W 074°04'0 0.1
2016-Nov-27 18:32N 40°40' W 074°04'0 0.0
2016-Nov-27 17:33N 40°40' W 074°04'0 0.0
2016-Nov-27 16:32N 40°40' W 074°04'0 0.0
2016-Nov-27 15:33N 40°40' W 074°04'6 5.7
2016-Nov-27 14:33N 40°45' W 074°01'1 1.1
2016-Nov-27 13:33N 40°46' W 074°00'6 5.7
2016-Nov-27 12:33N 40°41' W 074°03'4 1.1
2016-Nov-27 08:31N 40°40' W 074°08'3 1.1
2016-Nov-27 05:33N 40°40' W 074°04'0 0.3
2016-Nov-27 04:33N 40°40' W 074°04'4 0.6
2016-Nov-26 22:31N 40°42' W 074°08'5 0.9
2016-Nov-26 17:33N 40°39' W 074°04'1 0.2
2016-Nov-26 12:17N 40°39' W 074°05'1 1.6
2016-Nov-26 11:33N 40°40' W 074°04'4 0.9
2016-Nov-26 07:27N 40°39' W 074°09'2 0.1
2016-Nov-25 12:33N 40°41' W 074°09'0 0.3
2016-Nov-25 11:34N 40°41' W 074°08'3 2.4
2016-Nov-25 10:24N 40°39' W 074°05'3 3.6
2016-Nov-25 09:31N 40°36' W 074°03'6 0.3
2016-Nov-24 13:19N 40°40' W 074°08'4 0.6
2016-Nov-24 07:33N 40°39' W 074°04'2 1.1
2016-Nov-24 05:32N 40°41' W 074°02'1 1.0
2016-Nov-24 04:33N 40°41' W 074°01'4 0.6
2016-Nov-23 22:29N 40°39' W 074°05'2 1.6
2016-Nov-23 21:18N 40°38' W 074°03'2 2.8
2016-Nov-23 20:32N 40°40' W 074°04'0 0.4
2016-Nov-23 19:33N 40°40' W 074°04'0 0.0
2016-Nov-23 18:30N 40°40' W 074°04'0 0.2
2016-Nov-23 17:24N 40°40' W 074°04'3 1.2
2016-Nov-23 14:23N 40°40' W 074°09'3 2.6
2016-Nov-23 13:25N 40°39' W 074°06'2 2.2
2016-Nov-23 12:21N 40°38' W 074°03'  

Dump ship's entire track history